sensor_id;sensor_type;location;lat;lon;timestamp;temperature;humidity
3866;DHT22;1948;53.250;10.412;2023-06-22T00:00:26;20.80;99.90
3866;DHT22;1948;53.250;10.412;2023-06-22T00:02:56;20.90;99.90
3866;DHT22;1948;53.250;10.412;2023-06-22T00:05:23;20.90;99.90
3866;DHT22;1948;53.250;10.412;2023-06-22T00:07:50;20.80;99.90
3866;DHT22;1948;53.250;10.412;2023-06-22T00:10:17;20.70;99.90
3866;DHT22;1948;53.250;10.412;2023-06-22T00:12:44;20.60;99.90
3866;DHT22;1948;53.250;10.412;2023-06-22T00:15:13;20.50;99.90
3866;DHT22;1948;53.250;10.412;2023-06-22T00:17:43;20.40;99.90
3866;DHT22;1948;53.250;10.412;2023-06-22T00:20:10;20.40;99.90
3866;DHT22;1948;53.250;10.412;2023-06-22T00:22:37;20.30;99.90
3866;DHT22;1948;53.250;10.412;2023-06-22T00:25:06;20.30;99.90
3866;DHT22;1948;53.250;10.412;2023-06-22T00:27:35;20.30;99.90
3866;DHT22;1948;53.250;10.412;2023-06-22T00:30:03;20.20;99.90
3866;DHT22;1948;53.250;10.412;2023-06-22T00:32:39;20.20;99.90
3866;DHT22;1948;53.250;10.412;2023-06-22T00:35:07;20.20;99.90
3866;DHT22;1948;53.250;10.412;2023-06-22T00:37:36;20.10;99.90
3866;DHT22;1948;53.250;10.412;2023-06-22T00:40:05;20.20;99.90
3866;DHT22;1948;53.250;10.412;2023-06-22T00:42:38;20.10;99.90
3866;DHT22;1948;53.250;10.412;2023-06-22T00:45:06;20.00;99.90
3866;DHT22;1948;53.250;10.412;2023-06-22T00:47:37;20.00;99.90
3866;DHT22;1948;53.250;10.412;2023-06-22T00:50:07;20.00;99.90
3866;DHT22;1948;53.250;10.412;2023-06-22T00:52:36;19.90;99.90
3866;DHT22;1948;53.250;10.412;2023-06-22T00:55:06;19.90;99.90
3866;DHT22;1948;53.250;10.412;2023-06-22T00:57:36;19.90;99.90
3866;DHT22;1948;53.250;10.412;2023-06-22T01:00:04;19.80;99.90
3866;DHT22;1948;53.250;10.412;2023-06-22T01:02:36;19.80;99.90
3866;DHT22;1948;53.250;10.412;2023-06-22T01:05:05;19.90;99.90
3866;DHT22;1948;53.250;10.412;2023-06-22T01:16:25;19.70;99.90
3866;DHT22;1948;53.250;10.412;2023-06-22T01:19:00;19.80;99.90
3866;DHT22;1948;53.250;10.412;2023-06-22T01:21:42;19.80;99.90
3866;DHT22;1948;53.250;10.412;2023-06-22T01:24:23;19.80;99.90
3866;DHT22;1948;53.250;10.412;2023-06-22T01:29:44;19.80;99.90
3866;DHT22;1948;53.250;10.412;2023-06-22T01:32:14;19.80;99.90
3866;DHT22;1948;53.250;10.412;2023-06-22T01:34:49;19.80;99.90
3866;DHT22;1948;53.250;10.412;2023-06-22T01:37:17;19.80;99.90
3866;DHT22;1948;53.250;10.412;2023-06-22T01:39:47;19.80;99.90
3866;DHT22;1948;53.250;10.412;2023-06-22T01:42:14;19.80;99.90
3866;DHT22;1948;53.250;10.412;2023-06-22T01:44:45;19.80;99.90
3866;DHT22;1948;53.250;10.412;2023-06-22T01:47:12;19.80;99.90
3866;DHT22;1948;53.250;10.412;2023-06-22T01:49:43;19.80;99.90
3866;DHT22;1948;53.250;10.412;2023-06-22T01:52:10;19.70;99.90
3866;DHT22;1948;53.250;10.412;2023-06-22T01:54:40;19.70;99.90
3866;DHT22;1948;53.250;10.412;2023-06-22T01:57:10;19.60;99.90
3866;DHT22;1948;53.250;10.412;2023-06-22T01:59:48;19.60;99.90
3866;DHT22;1948;53.250;10.412;2023-06-22T02:02:20;19.60;99.90
3866;DHT22;1948;53.250;10.412;2023-06-22T02:04:59;19.50;99.90
3866;DHT22;1948;53.250;10.412;2023-06-22T02:07:52;19.50;99.90
3866;DHT22;1948;53.250;10.412;2023-06-22T02:10:34;19.60;99.90
3866;DHT22;1948;53.250;10.412;2023-06-22T02:13:06;19.50;99.90
3866;DHT22;1948;53.250;10.412;2023-06-22T02:15:33;19.60;99.90
3866;DHT22;1948;53.250;10.412;2023-06-22T02:18:01;19.50;99.90
3866;DHT22;1948;53.250;10.412;2023-06-22T02:20:28;19.50;99.90
3866;DHT22;1948;53.250;10.412;2023-06-22T02:22:55;19.50;99.90
3866;DHT22;1948;53.250;10.412;2023-06-22T02:25:22;19.50;99.90
3866;DHT22;1948;53.250;10.412;2023-06-22T02:27:49;19.50;99.90
3866;DHT22;1948;53.250;10.412;2023-06-22T02:30:16;19.50;99.90
3866;DHT22;1948;53.250;10.412;2023-06-22T02:32:46;19.50;99.90
3866;DHT22;1948;53.250;10.412;2023-06-22T02:35:13;19.40;99.90
3866;DHT22;1948;53.250;10.412;2023-06-22T02:37:45;19.40;99.90
3866;DHT22;1948;53.250;10.412;2023-06-22T02:40:13;19.40;99.90
3866;DHT22;1948;53.250;10.412;2023-06-22T02:42:40;19.40;99.90
3866;DHT22;1948;53.250;10.412;2023-06-22T02:45:10;19.30;99.90
3866;DHT22;1948;53.250;10.412;2023-06-22T02:47:37;19.30;99.90
3866;DHT22;1948;53.250;10.412;2023-06-22T02:50:05;19.30;99.90
3866;DHT22;1948;53.250;10.412;2023-06-22T02:52:32;19.30;99.90
3866;DHT22;1948;53.250;10.412;2023-06-22T02:54:59;19.30;99.90
3866;DHT22;1948;53.250;10.412;2023-06-22T02:57:26;19.30;99.90
3866;DHT22;1948;53.250;10.412;2023-06-22T02:59:53;19.30;99.90
3866;DHT22;1948;53.250;10.412;2023-06-22T03:02:22;19.30;99.90
3866;DHT22;1948;53.250;10.412;2023-06-22T03:04:49;19.30;99.90
3866;DHT22;1948;53.250;10.412;2023-06-22T03:07:16;19.30;99.90
3866;DHT22;1948;53.250;10.412;2023-06-22T03:09:44;19.20;99.90
3866;DHT22;1948;53.250;10.412;2023-06-22T03:12:11;19.30;99.90
3866;DHT22;1948;53.250;10.412;2023-06-22T03:14:38;19.30;99.90
3866;DHT22;1948;53.250;10.412;2023-06-22T03:17:05;19.40;99.90
3866;DHT22;1948;53.250;10.412;2023-06-22T03:19:32;19.40;99.90
3866;DHT22;1948;53.250;10.412;2023-06-22T03:22:00;19.50;99.90
3866;DHT22;1948;53.250;10.412;2023-06-22T03:24:27;19.60;99.90
3866;DHT22;1948;53.250;10.412;2023-06-22T03:26:57;19.60;99.90
3866;DHT22;1948;53.250;10.412;2023-06-22T03:29:31;19.70;99.90
3866;DHT22;1948;53.250;10.412;2023-06-22T03:31:58;19.60;99.90
3866;DHT22;1948;53.250;10.412;2023-06-22T03:34:27;19.60;99.90
3866;DHT22;1948;53.250;10.412;2023-06-22T03:36:54;19.50;99.90
3866;DHT22;1948;53.250;10.412;2023-06-22T03:39:24;19.50;99.90
3866;DHT22;1948;53.250;10.412;2023-06-22T03:41:51;19.60;99.90
3866;DHT22;1948;53.250;10.412;2023-06-22T03:44:18;19.60;99.90
3866;DHT22;1948;53.250;10.412;2023-06-22T03:46:45;19.50;99.90
3866;DHT22;1948;53.250;10.412;2023-06-22T03:49:12;19.40;99.90
3866;DHT22;1948;53.250;10.412;2023-06-22T03:51:39;19.40;99.90
3866;DHT22;1948;53.250;10.412;2023-06-22T03:54:06;19.30;99.90
3866;DHT22;1948;53.250;10.412;2023-06-22T03:56:33;19.30;99.90
3866;DHT22;1948;53.250;10.412;2023-06-22T03:59:00;19.40;99.90
3866;DHT22;1948;53.250;10.412;2023-06-22T04:01:31;19.50;99.90
3866;DHT22;1948;53.250;10.412;2023-06-22T04:03:58;19.50;99.90
3866;DHT22;1948;53.250;10.412;2023-06-22T04:06:27;19.60;99.90
3866;DHT22;1948;53.250;10.412;2023-06-22T04:08:59;19.60;99.90
3866;DHT22;1948;53.250;10.412;2023-06-22T04:11:27;19.70;99.90
3866;DHT22;1948;53.250;10.412;2023-06-22T04:13:54;19.80;99.90
3866;DHT22;1948;53.250;10.412;2023-06-22T04:16:22;19.80;99.90
3866;DHT22;1948;53.250;10.412;2023-06-22T04:18:49;19.90;99.90
3866;DHT22;1948;53.250;10.412;2023-06-22T04:21:16;19.90;99.90
3866;DHT22;1948;53.250;10.412;2023-06-22T04:23:46;19.90;99.90
3866;DHT22;1948;53.250;10.412;2023-06-22T04:26:18;20.00;99.90
3866;DHT22;1948;53.250;10.412;2023-06-22T04:28:49;20.00;99.90
3866;DHT22;1948;53.250;10.412;2023-06-22T04:31:18;20.10;99.90
3866;DHT22;1948;53.250;10.412;2023-06-22T04:33:45;20.20;99.90
3866;DHT22;1948;53.250;10.412;2023-06-22T04:36:14;20.30;99.90
3866;DHT22;1948;53.250;10.412;2023-06-22T04:38:44;20.30;99.90
3866;DHT22;1948;53.250;10.412;2023-06-22T04:41:13;20.50;99.90
3866;DHT22;1948;53.250;10.412;2023-06-22T04:43:50;20.60;99.90
3866;DHT22;1948;53.250;10.412;2023-06-22T04:46:20;20.60;99.90
3866;DHT22;1948;53.250;10.412;2023-06-22T04:48:47;20.60;99.90
3866;DHT22;1948;53.250;10.412;2023-06-22T04:51:14;20.70;99.90
3866;DHT22;1948;53.250;10.412;2023-06-22T04:53:41;20.70;99.90
3866;DHT22;1948;53.250;10.412;2023-06-22T04:56:08;20.70;99.90
3866;DHT22;1948;53.250;10.412;2023-06-22T04:58:35;20.80;99.90
3866;DHT22;1948;53.250;10.412;2023-06-22T05:01:02;20.90;99.90
3866;DHT22;1948;53.250;10.412;2023-06-22T05:03:30;20.90;99.90
3866;DHT22;1948;53.250;10.412;2023-06-22T05:05:57;21.00;99.90
3866;DHT22;1948;53.250;10.412;2023-06-22T05:08:24;21.00;99.90
3866;DHT22;1948;53.250;10.412;2023-06-22T05:10:53;21.10;99.90
3866;DHT22;1948;53.250;10.412;2023-06-22T05:13:34;21.20;99.90
3866;DHT22;1948;53.250;10.412;2023-06-22T05:16:03;21.40;99.90
3866;DHT22;1948;53.250;10.412;2023-06-22T05:18:32;21.60;99.90
3866;DHT22;1948;53.250;10.412;2023-06-22T05:21:00;21.70;99.90
3866;DHT22;1948;53.250;10.412;2023-06-22T05:23:27;21.90;99.90
3866;DHT22;1948;53.250;10.412;2023-06-22T05:25:59;22.00;99.90
3866;DHT22;1948;53.250;10.412;2023-06-22T05:28:26;22.10;99.90
3866;DHT22;1948;53.250;10.412;2023-06-22T05:30:56;22.10;99.90
3866;DHT22;1948;53.250;10.412;2023-06-22T05:33:25;22.10;99.90
3866;DHT22;1948;53.250;10.412;2023-06-22T05:35:55;22.10;99.90
3866;DHT22;1948;53.250;10.412;2023-06-22T05:38:22;22.20;99.90
3866;DHT22;1948;53.250;10.412;2023-06-22T05:40:48;22.30;99.90
3866;DHT22;1948;53.250;10.412;2023-06-22T05:43:18;22.40;99.90
3866;DHT22;1948;53.250;10.412;2023-06-22T05:45:45;22.50;99.90
3866;DHT22;1948;53.250;10.412;2023-06-22T05:48:12;22.50;99.90
3866;DHT22;1948;53.250;10.412;2023-06-22T05:50:40;22.40;99.90
3866;DHT22;1948;53.250;10.412;2023-06-22T05:53:07;22.50;99.90
3866;DHT22;1948;53.250;10.412;2023-06-22T05:55:36;22.70;99.90
3866;DHT22;1948;53.250;10.412;2023-06-22T05:58:06;22.70;99.90
3866;DHT22;1948;53.250;10.412;2023-06-22T06:00:33;23.00;99.90
3866;DHT22;1948;53.250;10.412;2023-06-22T06:03:02;23.00;99.90
3866;DHT22;1948;53.250;10.412;2023-06-22T06:05:31;23.10;99.90
3866;DHT22;1948;53.250;10.412;2023-06-22T06:08:04;23.10;99.90
3866;DHT22;1948;53.250;10.412;2023-06-22T06:10:33;23.20;99.90
3866;DHT22;1948;53.250;10.412;2023-06-22T06:13:00;23.40;99.90
3866;DHT22;1948;53.250;10.412;2023-06-22T06:15:34;23.60;99.90
3866;DHT22;1948;53.250;10.412;2023-06-22T06:18:04;23.80;99.90
3866;DHT22;1948;53.250;10.412;2023-06-22T06:20:32;24.00;99.90
3866;DHT22;1948;53.250;10.412;2023-06-22T06:23:02;24.20;99.90
3866;DHT22;1948;53.250;10.412;2023-06-22T06:25:29;24.20;99.90
3866;DHT22;1948;53.250;10.412;2023-06-22T06:28:02;24.10;99.90
3866;DHT22;1948;53.250;10.412;2023-06-22T06:30:34;23.90;99.90
3866;DHT22;1948;53.250;10.412;2023-06-22T06:33:03;24.00;99.90
3866;DHT22;1948;53.250;10.412;2023-06-22T06:35:35;24.00;99.90
3866;DHT22;1948;53.250;10.412;2023-06-22T06:38:04;24.10;99.90
3866;DHT22;1948;53.250;10.412;2023-06-22T06:40:31;24.10;99.90
3866;DHT22;1948;53.250;10.412;2023-06-22T06:42:59;24.20;99.90
3866;DHT22;1948;53.250;10.412;2023-06-22T06:45:26;24.20;99.90
3866;DHT22;1948;53.250;10.412;2023-06-22T06:47:55;24.30;99.90
3866;DHT22;1948;53.250;10.412;2023-06-22T06:50:22;24.30;99.90
3866;DHT22;1948;53.250;10.412;2023-06-22T06:52:55;24.30;99.90
3866;DHT22;1948;53.250;10.412;2023-06-22T06:55:28;24.50;99.90
3866;DHT22;1948;53.250;10.412;2023-06-22T06:58:00;24.50;99.90
3866;DHT22;1948;53.250;10.412;2023-06-22T07:00:29;24.60;99.90
3866;DHT22;1948;53.250;10.412;2023-06-22T07:02:57;24.80;99.90
3866;DHT22;1948;53.250;10.412;2023-06-22T07:05:24;24.80;99.90
3866;DHT22;1948;53.250;10.412;2023-06-22T07:07:53;25.10;99.90
3866;DHT22;1948;53.250;10.412;2023-06-22T07:10:23;25.30;99.90
3866;DHT22;1948;53.250;10.412;2023-06-22T07:12:53;25.50;99.90
3866;DHT22;1948;53.250;10.412;2023-06-22T07:15:24;25.80;99.90
3866;DHT22;1948;53.250;10.412;2023-06-22T07:17:51;26.00;99.90
3866;DHT22;1948;53.250;10.412;2023-06-22T07:20:19;26.10;99.90
3866;DHT22;1948;53.250;10.412;2023-06-22T07:22:46;26.20;99.90
3866;DHT22;1948;53.250;10.412;2023-06-22T07:25:13;26.20;99.90
3866;DHT22;1948;53.250;10.412;2023-06-22T07:28:06;26.20;99.90
3866;DHT22;1948;53.250;10.412;2023-06-22T07:30:35;26.20;99.90
3866;DHT22;1948;53.250;10.412;2023-06-22T07:33:02;26.40;99.90
3866;DHT22;1948;53.250;10.412;2023-06-22T07:35:31;26.50;99.90
3866;DHT22;1948;53.250;10.412;2023-06-22T07:37:58;26.70;99.90
3866;DHT22;1948;53.250;10.412;2023-06-22T07:40:30;26.70;99.90
3866;DHT22;1948;53.250;10.412;2023-06-22T07:42:58;26.60;99.90
3866;DHT22;1948;53.250;10.412;2023-06-22T07:45:25;26.60;99.90
3866;DHT22;1948;53.250;10.412;2023-06-22T07:47:58;26.70;99.90
3866;DHT22;1948;53.250;10.412;2023-06-22T07:50:26;26.80;99.90
3866;DHT22;1948;53.250;10.412;2023-06-22T07:52:53;27.00;99.90
3866;DHT22;1948;53.250;10.412;2023-06-22T07:55:20;27.00;99.90
3866;DHT22;1948;53.250;10.412;2023-06-22T07:57:49;27.10;99.90
3866;DHT22;1948;53.250;10.412;2023-06-22T08:00:18;27.10;99.90
3866;DHT22;1948;53.250;10.412;2023-06-22T08:02:46;27.20;99.90
3866;DHT22;1948;53.250;10.412;2023-06-22T08:05:14;27.20;99.90
3866;DHT22;1948;53.250;10.412;2023-06-22T08:08:00;27.30;99.90
3866;DHT22;1948;53.250;10.412;2023-06-22T08:10:27;27.30;99.90
3866;DHT22;1948;53.250;10.412;2023-06-22T08:12:54;27.40;99.90
3866;DHT22;1948;53.250;10.412;2023-06-22T08:15:25;27.60;99.90
3866;DHT22;1948;53.250;10.412;2023-06-22T08:17:54;27.70;99.90
3866;DHT22;1948;53.250;10.412;2023-06-22T08:20:20;27.80;99.90
3866;DHT22;1948;53.250;10.412;2023-06-22T08:22:48;28.00;99.90
3866;DHT22;1948;53.250;10.412;2023-06-22T08:25:16;27.90;99.90
3866;DHT22;1948;53.250;10.412;2023-06-22T08:27:47;28.00;99.90
3866;DHT22;1948;53.250;10.412;2023-06-22T08:30:16;28.10;99.90
3866;DHT22;1948;53.250;10.412;2023-06-22T08:32:45;28.00;99.90
3866;DHT22;1948;53.250;10.412;2023-06-22T08:35:12;28.00;99.90
3866;DHT22;1948;53.250;10.412;2023-06-22T08:37:39;28.20;99.90
3866;DHT22;1948;53.250;10.412;2023-06-22T08:40:08;28.40;99.90
3866;DHT22;1948;53.250;10.412;2023-06-22T08:42:37;28.50;99.90
3866;DHT22;1948;53.250;10.412;2023-06-22T08:45:05;28.30;99.90
3866;DHT22;1948;53.250;10.412;2023-06-22T08:47:35;28.30;99.90
3866;DHT22;1948;53.250;10.412;2023-06-22T08:50:04;28.50;99.90
3866;DHT22;1948;53.250;10.412;2023-06-22T08:52:33;28.60;99.90
3866;DHT22;1948;53.250;10.412;2023-06-22T08:55:00;28.70;99.90
3866;DHT22;1948;53.250;10.412;2023-06-22T08:57:27;29.10;99.90
3866;DHT22;1948;53.250;10.412;2023-06-22T08:59:55;29.30;99.90
3866;DHT22;1948;53.250;10.412;2023-06-22T09:02:26;29.30;99.90
3866;DHT22;1948;53.250;10.412;2023-06-22T09:04:58;29.40;99.90
3866;DHT22;1948;53.250;10.412;2023-06-22T09:07:28;29.70;99.90
3866;DHT22;1948;53.250;10.412;2023-06-22T09:09:56;29.90;99.90
3866;DHT22;1948;53.250;10.412;2023-06-22T09:12:24;30.00;99.90
3866;DHT22;1948;53.250;10.412;2023-06-22T09:14:53;29.80;99.90
3866;DHT22;1948;53.250;10.412;2023-06-22T09:17:21;29.80;99.90
3866;DHT22;1948;53.250;10.412;2023-06-22T09:19:48;29.90;99.90
3866;DHT22;1948;53.250;10.412;2023-06-22T09:22:15;29.80;99.90
3866;DHT22;1948;53.250;10.412;2023-06-22T09:24:45;30.00;99.90
3866;DHT22;1948;53.250;10.412;2023-06-22T09:27:12;30.10;99.90
3866;DHT22;1948;53.250;10.412;2023-06-22T09:29:39;29.90;99.90
3866;DHT22;1948;53.250;10.412;2023-06-22T09:32:13;29.70;99.90
3866;DHT22;1948;53.250;10.412;2023-06-22T09:34:42;29.70;99.90
3866;DHT22;1948;53.250;10.412;2023-06-22T09:37:09;29.70;99.90
3866;DHT22;1948;53.250;10.412;2023-06-22T09:39:37;29.90;99.90
3866;DHT22;1948;53.250;10.412;2023-06-22T09:42:06;30.20;99.90
3866;DHT22;1948;53.250;10.412;2023-06-22T09:44:34;30.30;99.90
3866;DHT22;1948;53.250;10.412;2023-06-22T09:47:03;30.10;99.90
3866;DHT22;1948;53.250;10.412;2023-06-22T09:49:31;30.30;99.90
3866;DHT22;1948;53.250;10.412;2023-06-22T09:52:16;30.40;99.90
3866;DHT22;1948;53.250;10.412;2023-06-22T09:54:45;30.50;99.90
3866;DHT22;1948;53.250;10.412;2023-06-22T09:57:12;30.70;99.90
3866;DHT22;1948;53.250;10.412;2023-06-22T09:59:39;30.90;99.90
3866;DHT22;1948;53.250;10.412;2023-06-22T10:02:08;31.10;99.90
3866;DHT22;1948;53.250;10.412;2023-06-22T10:04:35;31.00;99.90
3866;DHT22;1948;53.250;10.412;2023-06-22T10:07:03;30.90;99.90
3866;DHT22;1948;53.250;10.412;2023-06-22T10:09:30;31.20;99.90
3866;DHT22;1948;53.250;10.412;2023-06-22T10:11:57;31.40;99.90
3866;DHT22;1948;53.250;10.412;2023-06-22T10:14:24;31.70;99.90
3866;DHT22;1948;53.250;10.412;2023-06-22T10:16:56;31.70;99.90
3866;DHT22;1948;53.250;10.412;2023-06-22T10:19:26;31.50;99.90
3866;DHT22;1948;53.250;10.412;2023-06-22T10:21:53;31.50;99.90
3866;DHT22;1948;53.250;10.412;2023-06-22T10:24:21;31.70;99.90
3866;DHT22;1948;53.250;10.412;2023-06-22T10:26:49;32.10;99.90
3866;DHT22;1948;53.250;10.412;2023-06-22T10:29:16;31.90;99.90
3866;DHT22;1948;53.250;10.412;2023-06-22T10:31:43;31.70;99.90
3866;DHT22;1948;53.250;10.412;2023-06-22T10:34:11;31.70;99.90
3866;DHT22;1948;53.250;10.412;2023-06-22T10:36:38;31.60;99.90
3866;DHT22;1948;53.250;10.412;2023-06-22T10:39:06;31.80;99.90
3866;DHT22;1948;53.250;10.412;2023-06-22T10:41:33;32.10;99.90
3866;DHT22;1948;53.250;10.412;2023-06-22T10:43:59;32.30;99.90
3866;DHT22;1948;53.250;10.412;2023-06-22T10:46:26;32.20;99.90
3866;DHT22;1948;53.250;10.412;2023-06-22T10:48:56;32.20;99.90
3866;DHT22;1948;53.250;10.412;2023-06-22T10:51:27;32.40;99.90
3866;DHT22;1948;53.250;10.412;2023-06-22T10:53:55;32.60;99.90
3866;DHT22;1948;53.250;10.412;2023-06-22T10:56:23;32.80;99.90
3866;DHT22;1948;53.250;10.412;2023-06-22T10:58:53;32.90;99.90
3866;DHT22;1948;53.250;10.412;2023-06-22T11:01:21;32.60;99.90
3866;DHT22;1948;53.250;10.412;2023-06-22T11:04:02;32.00;99.90
3866;DHT22;1948;53.250;10.412;2023-06-22T11:06:33;32.00;99.90
3866;DHT22;1948;53.250;10.412;2023-06-22T11:09:01;31.90;99.90
3866;DHT22;1948;53.250;10.412;2023-06-22T11:11:37;32.10;99.90
3866;DHT22;1948;53.250;10.412;2023-06-22T11:14:04;32.20;99.90
3866;DHT22;1948;53.250;10.412;2023-06-22T11:16:31;32.40;99.90
3866;DHT22;1948;53.250;10.412;2023-06-22T11:19:01;32.40;99.90
3866;DHT22;1948;53.250;10.412;2023-06-22T11:21:28;32.60;99.90
3866;DHT22;1948;53.250;10.412;2023-06-22T11:23:55;32.70;99.90
3866;DHT22;1948;53.250;10.412;2023-06-22T11:26:22;32.80;99.90
3866;DHT22;1948;53.250;10.412;2023-06-22T11:28:52;33.20;99.90
3866;DHT22;1948;53.250;10.412;2023-06-22T11:31:22;33.20;99.90
3866;DHT22;1948;53.250;10.412;2023-06-22T11:33:52;33.40;99.90
3866;DHT22;1948;53.250;10.412;2023-06-22T11:36:20;33.20;99.90
3866;DHT22;1948;53.250;10.412;2023-06-22T11:38:50;33.30;99.90
3866;DHT22;1948;53.250;10.412;2023-06-22T11:41:20;33.20;99.90
3866;DHT22;1948;53.250;10.412;2023-06-22T11:43:50;32.60;99.90
3866;DHT22;1948;53.250;10.412;2023-06-22T11:46:17;32.10;99.90
3866;DHT22;1948;53.250;10.412;2023-06-22T11:48:45;31.70;99.90
3866;DHT22;1948;53.250;10.412;2023-06-22T11:51:17;31.60;99.90
3866;DHT22;1948;53.250;10.412;2023-06-22T11:53:44;31.60;99.90
3866;DHT22;1948;53.250;10.412;2023-06-22T11:56:13;31.60;99.90
3866;DHT22;1948;53.250;10.412;2023-06-22T11:58:42;31.50;99.90
3866;DHT22;1948;53.250;10.412;2023-06-22T12:01:09;31.60;99.90
3866;DHT22;1948;53.250;10.412;2023-06-22T12:03:38;31.80;99.90
3866;DHT22;1948;53.250;10.412;2023-06-22T12:06:06;31.70;99.90
3866;DHT22;1948;53.250;10.412;2023-06-22T12:08:33;31.90;99.90
3866;DHT22;1948;53.250;10.412;2023-06-22T12:11:00;32.00;99.90
3866;DHT22;1948;53.250;10.412;2023-06-22T12:13:29;32.10;99.90
3866;DHT22;1948;53.250;10.412;2023-06-22T12:15:58;32.10;99.90
3866;DHT22;1948;53.250;10.412;2023-06-22T12:18:25;31.80;99.90
3866;DHT22;1948;53.250;10.412;2023-06-22T12:20:52;31.40;99.90
3866;DHT22;1948;53.250;10.412;2023-06-22T12:23:20;31.00;99.90
3866;DHT22;1948;53.250;10.412;2023-06-22T12:25:47;30.90;99.90
3866;DHT22;1948;53.250;10.412;2023-06-22T12:28:14;30.70;99.90
3866;DHT22;1948;53.250;10.412;2023-06-22T12:30:41;30.60;99.90
3866;DHT22;1948;53.250;10.412;2023-06-22T12:33:08;30.60;99.90
3866;DHT22;1948;53.250;10.412;2023-06-22T12:35:35;30.50;99.90
3866;DHT22;1948;53.250;10.412;2023-06-22T12:38:02;30.30;99.90
3866;DHT22;1948;53.250;10.412;2023-06-22T12:40:29;30.30;99.90
3866;DHT22;1948;53.250;10.412;2023-06-22T12:42:57;30.50;99.90
3866;DHT22;1948;53.250;10.412;2023-06-22T12:45:24;30.60;99.90
3866;DHT22;1948;53.250;10.412;2023-06-22T12:47:55;30.70;99.90
3866;DHT22;1948;53.250;10.412;2023-06-22T12:50:22;30.50;99.90
3866;DHT22;1948;53.250;10.412;2023-06-22T12:52:49;30.70;99.90
3866;DHT22;1948;53.250;10.412;2023-06-22T12:55:21;30.50;99.90
3866;DHT22;1948;53.250;10.412;2023-06-22T12:57:53;30.40;99.90
3866;DHT22;1948;53.250;10.412;2023-06-22T13:00:20;30.40;99.90
3866;DHT22;1948;53.250;10.412;2023-06-22T13:02:49;30.30;99.90
3866;DHT22;1948;53.250;10.412;2023-06-22T13:05:18;30.20;99.90
3866;DHT22;1948;53.250;10.412;2023-06-22T13:07:48;30.20;99.90
3866;DHT22;1948;53.250;10.412;2023-06-22T13:10:15;30.30;99.90
3866;DHT22;1948;53.250;10.412;2023-06-22T13:12:45;30.20;99.90
3866;DHT22;1948;53.250;10.412;2023-06-22T13:15:12;30.10;99.90
3866;DHT22;1948;53.250;10.412;2023-06-22T13:17:39;30.00;99.90
3866;DHT22;1948;53.250;10.412;2023-06-22T13:20:06;29.90;99.90
3866;DHT22;1948;53.250;10.412;2023-06-22T13:22:36;29.80;99.90
3866;DHT22;1948;53.250;10.412;2023-06-22T13:25:07;29.80;99.90
3866;DHT22;1948;53.250;10.412;2023-06-22T13:27:42;29.70;99.90
3866;DHT22;1948;53.250;10.412;2023-06-22T13:30:14;29.60;99.90
3866;DHT22;1948;53.250;10.412;2023-06-22T13:32:42;29.50;99.90
3866;DHT22;1948;53.250;10.412;2023-06-22T13:35:10;29.50;99.90
3866;DHT22;1948;53.250;10.412;2023-06-22T13:37:42;29.30;99.90
3866;DHT22;1948;53.250;10.412;2023-06-22T13:40:09;29.00;99.90
3866;DHT22;1948;53.250;10.412;2023-06-22T13:42:39;28.70;99.90
3866;DHT22;1948;53.250;10.412;2023-06-22T13:45:08;28.60;99.90
3866;DHT22;1948;53.250;10.412;2023-06-22T13:47:35;28.50;99.90
3866;DHT22;1948;53.250;10.412;2023-06-22T13:50:03;28.50;99.90
3866;DHT22;1948;53.250;10.412;2023-06-22T13:52:30;28.50;99.90
3866;DHT22;1948;53.250;10.412;2023-06-22T13:54:57;28.60;99.90
3866;DHT22;1948;53.250;10.412;2023-06-22T13:57:24;28.70;99.90
3866;DHT22;1948;53.250;10.412;2023-06-22T13:59:51;28.60;99.90
3866;DHT22;1948;53.250;10.412;2023-06-22T14:02:18;28.50;99.90
3866;DHT22;1948;53.250;10.412;2023-06-22T14:04:47;28.50;99.90
3866;DHT22;1948;53.250;10.412;2023-06-22T14:07:15;28.40;99.90
3866;DHT22;1948;53.250;10.412;2023-06-22T14:09:44;28.40;99.90
3866;DHT22;1948;53.250;10.412;2023-06-22T14:12:12;28.50;99.90
3866;DHT22;1948;53.250;10.412;2023-06-22T14:14:39;28.30;99.90
3866;DHT22;1948;53.250;10.412;2023-06-22T14:17:06;28.30;99.90
3866;DHT22;1948;53.250;10.412;2023-06-22T14:19:35;28.30;99.90
3866;DHT22;1948;53.250;10.412;2023-06-22T14:22:03;28.30;99.90
3866;DHT22;1948;53.250;10.412;2023-06-22T14:24:30;28.30;99.90
3866;DHT22;1948;53.250;10.412;2023-06-22T14:26:57;28.50;99.90
3866;DHT22;1948;53.250;10.412;2023-06-22T14:29:31;28.60;99.90
3866;DHT22;1948;53.250;10.412;2023-06-22T14:32:01;28.80;99.90
3866;DHT22;1948;53.250;10.412;2023-06-22T14:34:28;29.00;99.90
3866;DHT22;1948;53.250;10.412;2023-06-22T14:36:58;29.20;99.90
3866;DHT22;1948;53.250;10.412;2023-06-22T14:39:28;29.30;99.90
3866;DHT22;1948;53.250;10.412;2023-06-22T14:41:55;29.50;99.90
3866;DHT22;1948;53.250;10.412;2023-06-22T14:44:22;29.50;99.90
3866;DHT22;1948;53.250;10.412;2023-06-22T14:46:49;29.60;99.90
3866;DHT22;1948;53.250;10.412;2023-06-22T14:49:17;29.60;99.90
3866;DHT22;1948;53.250;10.412;2023-06-22T14:51:44;29.50;99.90
3866;DHT22;1948;53.250;10.412;2023-06-22T14:54:13;29.40;99.90
3866;DHT22;1948;53.250;10.412;2023-06-22T14:56:40;29.30;99.90
3866;DHT22;1948;53.250;10.412;2023-06-22T14:59:07;29.30;99.90
3866;DHT22;1948;53.250;10.412;2023-06-22T15:01:35;29.30;99.90
3866;DHT22;1948;53.250;10.412;2023-06-22T15:04:07;29.30;99.90
3866;DHT22;1948;53.250;10.412;2023-06-22T15:06:34;29.30;99.90
3866;DHT22;1948;53.250;10.412;2023-06-22T15:09:03;29.30;99.90
3866;DHT22;1948;53.250;10.412;2023-06-22T15:11:30;29.20;99.90
3866;DHT22;1948;53.250;10.412;2023-06-22T15:14:00;29.10;99.90
3866;DHT22;1948;53.250;10.412;2023-06-22T15:16:27;28.90;99.90
3866;DHT22;1948;53.250;10.412;2023-06-22T15:18:59;28.80;99.90
3866;DHT22;1948;53.250;10.412;2023-06-22T15:21:27;28.80;99.90
3866;DHT22;1948;53.250;10.412;2023-06-22T15:23:57;28.60;99.90
3866;DHT22;1948;53.250;10.412;2023-06-22T15:26:24;28.60;99.90
3866;DHT22;1948;53.250;10.412;2023-06-22T15:28:52;28.40;99.90
3866;DHT22;1948;53.250;10.412;2023-06-22T15:31:21;28.20;99.90
3866;DHT22;1948;53.250;10.412;2023-06-22T15:33:51;28.10;99.90
3866;DHT22;1948;53.250;10.412;2023-06-22T15:36:18;28.00;99.90
3866;DHT22;1948;53.250;10.412;2023-06-22T15:38:45;28.00;99.90
3866;DHT22;1948;53.250;10.412;2023-06-22T15:41:16;27.90;99.90
3866;DHT22;1948;53.250;10.412;2023-06-22T15:43:46;28.00;99.90
3866;DHT22;1948;53.250;10.412;2023-06-22T15:46:13;27.90;99.90
3866;DHT22;1948;53.250;10.412;2023-06-22T15:48:44;27.80;99.90
3866;DHT22;1948;53.250;10.412;2023-06-22T15:51:14;27.80;99.90
3866;DHT22;1948;53.250;10.412;2023-06-22T15:53:43;27.70;99.90
3866;DHT22;1948;53.250;10.412;2023-06-22T15:56:13;27.70;99.90
3866;DHT22;1948;53.250;10.412;2023-06-22T15:58:45;27.60;99.90
3866;DHT22;1948;53.250;10.412;2023-06-22T16:01:15;27.60;99.90
3866;DHT22;1948;53.250;10.412;2023-06-22T16:03:42;27.50;99.90
3866;DHT22;1948;53.250;10.412;2023-06-22T16:06:10;27.50;99.90